This is the latest recevied weather packets stored in our database for station/object OK0EK-11. If no packets are shown the sender has not sent any weather packets the latest 10 day(s).
| Time | Temp. | Humidity | Pressure | Rain* | Wind** | Luminosity | Snow |
|---|---|---|---|---|---|---|---|
| 1787567058 | 17.78° C | 45% | 1022.9 hPa | - | - | - | - |
| 1787566458 | 17.22° C | 47% | 1022.9 hPa | - | - | - | - |
| 1787565859 | 16.67° C | 47% | 1023 hPa | - | - | - | - |
| 1787565259 | 16.67° C | 49% | 1023 hPa | - | - | - | - |
| 1787564659 | 16.11° C | 48% | 1023 hPa | - | - | - | - |
| 1787564059 | 16.11° C | 49% | 1023 hPa | - | - | - | - |
| 1787563460 | 16.67° C | 49% | 1023.1 hPa | - | - | - | - |
| 1787562860 | 16.67° C | 49% | 1023 hPa | - | - | - | - |
| 1787562260 | 16.11° C | 50% | 1023 hPa | - | - | - | - |
| 1787561660 | 15.56° C | 53% | 1023.1 hPa | - | - | - | - |
| 1787561061 | 15° C | 55% | 1023 hPa | - | - | - | - |
| 1787560461 | 14.44° C | 57% | 1023 hPa | - | - | - | - |
| 1787559861 | 13.89° C | 59% | 1023 hPa | - | - | - | - |
| 1787559261 | 13.33° C | 60% | 1023 hPa | - | - | - | - |
| 1787558662 | 13.33° C | 59% | 1023 hPa | - | - | - | - |
| 1787558062 | 13.33° C | 57% | 1023 hPa | - | - | - | - |
| 1787557462 | 12.78° C | 59% | 1022.9 hPa | - | - | - | - |
| 1787556862 | 12.22° C | 60% | 1022.9 hPa | - | - | - | - |
| 1787556263 | 12.22° C | 61% | 1022.9 hPa | - | - | - | - |
| 1787555663 | 12.22° C | 59% | 1022.9 hPa | - | - | - | - |
| 1787555063 | 12.22° C | 57% | 1022.9 hPa | - | - | - | - |
| 1787554463 | 11.67° C | 56% | 1022.8 hPa | - | - | - | - |
| 1787553864 | 12.22° C | 58% | 1022.8 hPa | - | - | - | - |
| 1787553264 | 13.33° C | 56% | 1022.7 hPa | - | - | - | - |
| 1787552664 | 14.44° C | 51% | 1022.8 hPa | - | - | - | - |
* Rain since midnight (hover to see other rain measurements)
** Current wind speed in m/s (hover to see current wind gust speed)